createdAt,value
2023-04-03T15:16:00.163Z,60
2023-04-03T15:31:00.112Z,62.5
2023-04-03T15:36:06.301Z,50
2023-04-03T15:41:00.103Z,57.5
2023-04-03T15:46:00.123Z,50
2023-04-03T16:06:00.105Z,67.5
2023-04-03T16:11:00.095Z,50
2023-04-03T16:16:00.145Z,50
2023-04-03T16:21:00.101Z,57.5
2023-04-03T16:31:00.144Z,35
2023-04-03T16:36:00.101Z,12.5
2023-04-03T16:41:00.106Z,30
2023-04-03T16:46:00.112Z,52.5
2023-04-03T16:51:00.131Z,45
2023-04-03T16:56:30.107Z,47.5
2023-04-03T17:01:30.132Z,55
2023-04-03T17:06:30.093Z,40
2023-04-03T17:11:30.135Z,35
2023-04-03T17:16:30.121Z,55
2023-04-03T17:21:30.092Z,50
2023-04-03T17:26:30.099Z,50
2023-04-03T17:31:30.156Z,55
2023-04-03T17:36:30.146Z,55
2023-04-03T17:41:30.097Z,60
2023-04-03T17:46:30.965Z,57.5
2023-04-03T17:51:30.104Z,55
2023-04-03T17:56:30.119Z,60
2023-04-03T18:01:30.143Z,60
2023-04-03T18:06:30.138Z,57.5
2023-04-03T18:11:30.130Z,57.5
2023-04-03T18:16:30.155Z,55
2023-04-03T18:21:30.120Z,60
2023-04-03T18:26:30.109Z,55
2023-04-03T18:31:31.154Z,60
2023-04-03T18:36:30.120Z,55
2023-04-03T18:41:30.117Z,57.5
2023-04-03T18:46:30.114Z,50
2023-04-03T18:51:30.103Z,55
2023-04-03T18:56:30.094Z,50
2023-04-03T19:01:30.149Z,47.5
2023-04-03T19:06:30.096Z,52.5
2023-04-03T19:11:30.280Z,60
2023-04-03T19:16:30.118Z,55
2023-04-03T19:21:30.098Z,57.5
2023-04-03T19:26:30.089Z,57.5
2023-04-03T19:36:30.110Z,52.5
2023-04-03T19:41:30.109Z,35
2023-04-03T19:46:30.128Z,35
2023-04-03T19:51:30.100Z,35
2023-04-03T19:56:30.097Z,42.5
2023-04-03T20:01:30.186Z,35
2023-04-03T20:06:30.100Z,40
2023-04-03T20:11:30.110Z,50
2023-04-03T20:16:30.213Z,55
2023-04-03T20:21:30.124Z,35
2023-04-03T20:26:30.098Z,35
2023-04-03T20:31:30.125Z,30
2023-04-03T20:36:30.118Z,30
2023-04-03T20:41:30.103Z,30
2023-04-03T20:46:38.640Z,37.5
2023-04-03T20:51:30.101Z,25
2023-04-03T20:56:30.094Z,30
2023-04-03T21:01:30.135Z,35
2023-04-03T21:06:30.087Z,32.5
2023-04-03T21:11:30.101Z,32.5
2023-04-03T21:16:30.124Z,35
2023-04-03T21:21:30.095Z,42.5
2023-04-03T21:26:30.092Z,52.5
2023-04-03T21:31:30.147Z,52.5
2023-04-03T21:36:30.119Z,65
2023-04-03T21:41:30.104Z,55
2023-04-03T21:46:30.129Z,57.5
2023-04-03T21:51:30.100Z,57.5
2023-04-03T21:56:30.104Z,50
2023-04-03T22:01:30.181Z,47.5
2023-04-03T22:06:30.104Z,37.5
2023-04-03T22:11:30.103Z,57.5
2023-04-03T22:16:30.121Z,37.5
2023-04-03T22:21:30.106Z,45
2023-04-03T22:26:30.081Z,50
2023-04-03T22:31:30.137Z,55
2023-04-03T22:36:30.104Z,52.5
2023-04-03T22:41:30.110Z,52.5
2023-04-03T22:46:30.122Z,62.5
2023-04-03T22:51:30.088Z,57.5
2023-04-03T22:56:30.094Z,62.5
2023-04-03T23:01:30.156Z,55
2023-04-03T23:06:30.101Z,57.5
2023-04-03T23:11:30.112Z,65
2023-04-03T23:16:30.131Z,60
2023-04-03T23:21:30.093Z,55
2023-04-03T23:26:30.094Z,45
2023-04-03T23:31:30.112Z,57.5
2023-04-03T23:36:30.096Z,50
2023-04-03T23:41:30.110Z,47.5
2023-04-03T23:46:30.107Z,45
2023-04-03T23:51:30.109Z,40
2023-04-03T23:56:30.089Z,40
